sensor_id;sensor_type;location;lat;lon;timestamp;P1;durP1;ratioP1;P2;durP2;ratioP2
46042;SDS011;32533;-33.854;18.542;2022-12-16T00:01:57;4.72;;;1.25;;
46042;SDS011;32533;-33.854;18.542;2022-12-16T00:04:23;2.67;;;1.73;;
46042;SDS011;32533;-33.854;18.542;2022-12-16T00:06:50;2.75;;;0.98;;
46042;SDS011;32533;-33.854;18.542;2022-12-16T00:09:16;1.20;;;1.10;;
46042;SDS011;32533;-33.854;18.542;2022-12-16T00:11:43;3.33;;;2.03;;
46042;SDS011;32533;-33.854;18.542;2022-12-16T00:14:09;2.97;;;0.82;;
46042;SDS011;32533;-33.854;18.542;2022-12-16T00:16:36;4.07;;;1.20;;
46042;SDS011;32533;-33.854;18.542;2022-12-16T00:19:02;4.85;;;1.48;;
46042;SDS011;32533;-33.854;18.542;2022-12-16T00:21:29;4.05;;;1.65;;
46042;SDS011;32533;-33.854;18.542;2022-12-16T00:23:55;4.85;;;1.30;;
46042;SDS011;32533;-33.854;18.542;2022-12-16T00:26:22;4.00;;;1.65;;
46042;SDS011;32533;-33.854;18.542;2022-12-16T00:28:49;4.47;;;1.00;;
46042;SDS011;32533;-33.854;18.542;2022-12-16T00:31:15;2.47;;;1.13;;
46042;SDS011;32533;-33.854;18.542;2022-12-16T00:33:42;4.32;;;2.03;;
46042;SDS011;32533;-33.854;18.542;2022-12-16T00:36:08;4.75;;;1.27;;
46042;SDS011;32533;-33.854;18.542;2022-12-16T00:38:35;1.67;;;1.13;;
46042;SDS011;32533;-33.854;18.542;2022-12-16T00:41:02;2.35;;;1.10;;
46042;SDS011;32533;-33.854;18.542;2022-12-16T00:43:28;3.13;;;2.83;;
46042;SDS011;32533;-33.854;18.542;2022-12-16T00:45:55;4.53;;;1.60;;
46042;SDS011;32533;-33.854;18.542;2022-12-16T00:48:21;4.05;;;1.80;;
46042;SDS011;32533;-33.854;18.542;2022-12-16T00:50:49;4.10;;;1.58;;
46042;SDS011;32533;-33.854;18.542;2022-12-16T00:53:20;3.33;;;1.58;;
46042;SDS011;32533;-33.854;18.542;2022-12-16T00:55:47;4.30;;;1.33;;
46042;SDS011;32533;-33.854;18.542;2022-12-16T00:58:14;2.03;;;1.20;;
46042;SDS011;32533;-33.854;18.542;2022-12-16T01:00:43;4.10;;;1.40;;
46042;SDS011;32533;-33.854;18.542;2022-12-16T01:03:10;4.05;;;1.38;;
46042;SDS011;32533;-33.854;18.542;2022-12-16T01:05:37;3.17;;;1.20;;
46042;SDS011;32533;-33.854;18.542;2022-12-16T01:08:03;3.03;;;1.05;;
46042;SDS011;32533;-33.854;18.542;2022-12-16T01:10:30;5.60;;;1.73;;
46042;SDS011;32533;-33.854;18.542;2022-12-16T01:12:56;3.72;;;1.30;;
46042;SDS011;32533;-33.854;18.542;2022-12-16T01:15:23;3.60;;;1.30;;
46042;SDS011;32533;-33.854;18.542;2022-12-16T01:17:49;4.13;;;1.45;;
46042;SDS011;32533;-33.854;18.542;2022-12-16T01:20:16;2.83;;;1.55;;
46042;SDS011;32533;-33.854;18.542;2022-12-16T01:22:42;3.47;;;1.08;;
46042;SDS011;32533;-33.854;18.542;2022-12-16T01:25:12;3.83;;;1.52;;
46042;SDS011;32533;-33.854;18.542;2022-12-16T01:27:38;4.25;;;2.17;;
46042;SDS011;32533;-33.854;18.542;2022-12-16T01:30:06;2.20;;;1.38;;
46042;SDS011;32533;-33.854;18.542;2022-12-16T01:32:33;3.20;;;1.38;;
46042;SDS011;32533;-33.854;18.542;2022-12-16T01:35:00;4.57;;;1.70;;
46042;SDS011;32533;-33.854;18.542;2022-12-16T01:37:27;3.03;;;1.52;;
46042;SDS011;32533;-33.854;18.542;2022-12-16T01:39:53;4.10;;;1.50;;
46042;SDS011;32533;-33.854;18.542;2022-12-16T01:42:21;2.22;;;1.20;;
46042;SDS011;32533;-33.854;18.542;2022-12-16T01:44:49;3.83;;;1.50;;
46042;SDS011;32533;-33.854;18.542;2022-12-16T01:47:17;6.88;;;1.95;;
46042;SDS011;32533;-33.854;18.542;2022-12-16T01:49:53;4.53;;;1.52;;
46042;SDS011;32533;-33.854;18.542;2022-12-16T01:52:22;4.38;;;2.35;;
46042;SDS011;32533;-33.854;18.542;2022-12-16T01:54:55;4.05;;;1.70;;
46042;SDS011;32533;-33.854;18.542;2022-12-16T01:57:35;2.78;;;1.55;;
46042;SDS011;32533;-33.854;18.542;2022-12-16T02:00:07;4.53;;;1.60;;
46042;SDS011;32533;-33.854;18.542;2022-12-16T04:20:31;12.57;;;11.27;;
46042;SDS011;32533;-33.854;18.542;2022-12-16T04:23:18;10.80;;;7.25;;
46042;SDS011;32533;-33.854;18.542;2022-12-16T04:26:04;6.10;;;5.25;;
46042;SDS011;32533;-33.854;18.542;2022-12-16T04:28:31;5.43;;;4.07;;
46042;SDS011;32533;-33.854;18.542;2022-12-16T04:30:58;5.03;;;3.75;;
46042;SDS011;32533;-33.854;18.542;2022-12-16T04:33:24;4.95;;;3.15;;
46042;SDS011;32533;-33.854;18.542;2022-12-16T04:36:09;3.78;;;2.50;;
46042;SDS011;32533;-33.854;18.542;2022-12-16T04:38:54;5.32;;;2.67;;
46042;SDS011;32533;-33.854;18.542;2022-12-16T04:41:38;2.15;;;1.95;;
46042;SDS011;32533;-33.854;18.542;2022-12-16T04:44:23;5.05;;;1.98;;
46042;SDS011;32533;-33.854;18.542;2022-12-16T04:47:08;4.57;;;2.40;;
46042;SDS011;32533;-33.854;18.542;2022-12-16T04:49:52;4.68;;;2.10;;
46042;SDS011;32533;-33.854;18.542;2022-12-16T04:52:37;3.17;;;1.85;;
46042;SDS011;32533;-33.854;18.542;2022-12-16T04:55:28;4.75;;;2.17;;
46042;SDS011;32533;-33.854;18.542;2022-12-16T04:58:12;3.60;;;2.22;;
46042;SDS011;32533;-33.854;18.542;2022-12-16T05:00:57;4.15;;;2.15;;
46042;SDS011;32533;-33.854;18.542;2022-12-16T05:04:21;2.80;;;2.22;;
46042;SDS011;32533;-33.854;18.542;2022-12-16T05:07:46;8.43;;;4.03;;
46042;SDS011;32533;-33.854;18.542;2022-12-16T05:11:10;10.05;;;8.15;;
46042;SDS011;32533;-33.854;18.542;2022-12-16T05:14:34;11.70;;;7.53;;
46042;SDS011;32533;-33.854;18.542;2022-12-16T05:17:58;7.55;;;4.32;;
46042;SDS011;32533;-33.854;18.542;2022-12-16T05:20:53;3.75;;;3.20;;
46042;SDS011;32533;-33.854;18.542;2022-12-16T05:23:39;4.63;;;2.33;;
46042;SDS011;32533;-33.854;18.542;2022-12-16T05:26:24;6.30;;;2.08;;
46042;SDS011;32533;-33.854;18.542;2022-12-16T05:29:08;4.43;;;1.75;;
46042;SDS011;32533;-33.854;18.542;2022-12-16T05:31:53;9.25;;;6.35;;
46042;SDS011;32533;-33.854;18.542;2022-12-16T05:34:38;11.00;;;8.45;;
46042;SDS011;32533;-33.854;18.542;2022-12-16T05:37:22;10.57;;;8.90;;
46042;SDS011;32533;-33.854;18.542;2022-12-16T05:40:08;9.32;;;7.20;;
46042;SDS011;32533;-33.854;18.542;2022-12-16T05:42:53;6.30;;;4.85;;
46042;SDS011;32533;-33.854;18.542;2022-12-16T05:45:38;7.88;;;3.88;;
46042;SDS011;32533;-33.854;18.542;2022-12-16T05:48:23;3.78;;;3.10;;
46042;SDS011;32533;-33.854;18.542;2022-12-16T05:51:09;2.75;;;2.10;;
46042;SDS011;32533;-33.854;18.542;2022-12-16T05:53:53;1.67;;;1.52;;
46042;SDS011;32533;-33.854;18.542;2022-12-16T05:56:38;5.47;;;2.38;;
46042;SDS011;32533;-33.854;18.542;2022-12-16T05:59:23;2.58;;;1.52;;
46042;SDS011;32533;-33.854;18.542;2022-12-16T06:02:08;2.47;;;1.85;;
46042;SDS011;32533;-33.854;18.542;2022-12-16T06:04:53;2.42;;;1.40;;
46042;SDS011;32533;-33.854;18.542;2022-12-16T06:07:37;3.67;;;1.75;;
46042;SDS011;32533;-33.854;18.542;2022-12-16T06:10:22;49.45;;;13.10;;
46042;SDS011;32533;-33.854;18.542;2022-12-16T06:13:07;82.75;;;21.58;;
46042;SDS011;32533;-33.854;18.542;2022-12-16T06:15:51;60.95;;;16.42;;
46042;SDS011;32533;-33.854;18.542;2022-12-16T06:18:43;29.70;;;9.18;;
46042;SDS011;32533;-33.854;18.542;2022-12-16T06:21:28;98.47;;;13.55;;
46042;SDS011;32533;-33.854;18.542;2022-12-16T06:24:13;85.50;;;11.18;;
46042;SDS011;32533;-33.854;18.542;2022-12-16T06:26:57;13.00;;;2.58;;
46042;SDS011;32533;-33.854;18.542;2022-12-16T06:29:42;1.90;;;1.75;;
46042;SDS011;32533;-33.854;18.542;2022-12-16T06:32:27;6.57;;;2.05;;
46042;SDS011;32533;-33.854;18.542;2022-12-16T06:35:11;3.17;;;1.52;;
